Seward, Kansas
Current Conditions -  °F | °C
As of 1:15 PM on Friday 28 Nov 2014 (Local Time) from KGBD Reporting Station
Clear Clear  
Wind Chill: 70°   Ceiling: Unl
Heat Index: 70°   Visibility: 10mi
Dew Point: 32°   Wind: 17mph
Humidity: 25%   Direction: 190°S
Pressure: 29.8"   Gusts: NA
Location:  38.0689°N, 98.7479°W
Report Text: KGBD 281915Z AUTO 19015KT 10SM CLR 21/00 A2980 RMK AO1
Loading
Personal Weather Stations






























Interactive Weather Map New forecast layout! Learn more

10-Day Weather Forecast

Advertisements
Track Severe Weather on mobile